sensor_id;sensor_type;location;lat;lon;timestamp;pressure;altitude;pressure_sealevel;temperature;humidity
18509;BME280;9383;50.928;12.116;2022-07-01T00:00:00;98337.94;;;19.47;88.97
18509;BME280;9383;50.928;12.116;2022-07-01T00:02:26;98316.00;;;19.30;89.07
18509;BME280;9383;50.928;12.116;2022-07-01T00:04:52;98307.81;;;19.20;89.27
18509;BME280;9383;50.928;12.116;2022-07-01T00:07:18;98326.59;;;19.32;89.32
18509;BME280;9383;50.928;12.116;2022-07-01T00:09:45;98333.69;;;19.33;89.30
18509;BME280;9383;50.928;12.116;2022-07-01T00:12:11;98334.31;;;19.25;89.74
18509;BME280;9383;50.928;12.116;2022-07-01T00:14:37;98312.47;;;19.07;89.87
18509;BME280;9383;50.928;12.116;2022-07-01T00:17:03;98299.78;;;18.97;90.00
18509;BME280;9383;50.928;12.116;2022-07-01T00:19:29;98333.13;;;19.18;90.28
18509;BME280;9383;50.928;12.116;2022-07-01T00:21:56;98336.16;;;19.13;90.51
18509;BME280;9383;50.928;12.116;2022-07-01T00:24:22;98315.16;;;19.07;90.58
18509;BME280;9383;50.928;12.116;2022-07-01T00:26:48;98272.19;;;18.84;90.65
18509;BME280;9383;50.928;12.116;2022-07-01T00:29:14;98321.28;;;19.09;90.73
18509;BME280;9383;50.928;12.116;2022-07-01T00:31:40;98298.28;;;18.93;90.96
18509;BME280;9383;50.928;12.116;2022-07-01T00:34:06;98318.59;;;19.09;91.28
18509;BME280;9383;50.928;12.116;2022-07-01T00:36:32;98295.59;;;18.93;91.46
18509;BME280;9383;50.928;12.116;2022-07-01T00:38:58;98304.03;;;19.00;91.50
18509;BME280;9383;50.928;12.116;2022-07-01T00:41:25;98318.59;;;19.09;91.60
18509;BME280;9383;50.928;12.116;2022-07-01T00:43:51;98302.09;;;19.02;91.80
18509;BME280;9383;50.928;12.116;2022-07-01T00:46:18;98291.56;;;18.99;92.12
18509;BME280;9383;50.928;12.116;2022-07-01T00:48:44;98307.59;;;19.12;92.42
18509;BME280;9383;50.928;12.116;2022-07-01T00:51:11;98298.81;;;19.10;92.70
18509;BME280;9383;50.928;12.116;2022-07-01T00:53:37;98307.84;;;19.09;93.16
18509;BME280;9383;50.928;12.116;2022-07-01T00:56:03;98279.97;;;18.98;93.12
18509;BME280;9383;50.928;12.116;2022-07-01T00:58:31;98315.16;;;19.18;93.46
18509;BME280;9383;50.928;12.116;2022-07-01T01:00:59;98312.22;;;19.21;93.90
18509;BME280;9383;50.928;12.116;2022-07-01T01:03:26;98285.50;;;19.08;94.01
18509;BME280;9383;50.928;12.116;2022-07-01T01:05:54;98257.00;;;18.94;94.34
18509;BME280;9383;50.928;12.116;2022-07-01T01:08:23;98292.44;;;19.22;94.60
18509;BME280;9383;50.928;12.116;2022-07-01T01:10:50;98251.19;;;19.01;94.83
18509;BME280;9383;50.928;12.116;2022-07-01T01:13:16;98296.81;;;19.35;95.25
18509;BME280;9383;50.928;12.116;2022-07-01T01:15:42;98247.50;;;19.13;95.63
18509;BME280;9383;50.928;12.116;2022-07-01T01:18:08;98274.34;;;19.36;95.91
18509;BME280;9383;50.928;12.116;2022-07-01T01:20:38;98242.84;;;19.26;96.44
18509;BME280;9383;50.928;12.116;2022-07-01T01:23:04;98249.50;;;19.44;96.62
18509;BME280;9383;50.928;12.116;2022-07-01T01:25:32;98289.34;;;19.71;96.63
18509;BME280;9383;50.928;12.116;2022-07-01T01:28:00;98290.56;;;19.78;97.00
18509;BME280;9383;50.928;12.116;2022-07-01T01:30:27;98290.44;;;19.80;97.05
18509;BME280;9383;50.928;12.116;2022-07-01T01:32:53;98279.19;;;19.75;97.02
18509;BME280;9383;50.928;12.116;2022-07-01T01:35:21;98303.09;;;19.89;97.02
18509;BME280;9383;50.928;12.116;2022-07-01T01:37:48;98268.81;;;19.70;96.82
18509;BME280;9383;50.928;12.116;2022-07-01T01:40:15;98291.28;;;19.80;97.58
18509;BME280;9383;50.928;12.116;2022-07-01T01:42:43;98315.19;;;19.95;97.47
18509;BME280;9383;50.928;12.116;2022-07-01T01:45:10;98316.91;;;19.96;97.16
18509;BME280;9383;50.928;12.116;2022-07-01T01:47:38;98328.88;;;20.03;97.86
18509;BME280;9383;50.928;12.116;2022-07-01T01:50:06;98312.59;;;20.05;97.88
18509;BME280;9383;50.928;12.116;2022-07-01T01:52:33;98319.31;;;20.10;97.72
18509;BME280;9383;50.928;12.116;2022-07-01T01:55:00;98322.44;;;20.16;98.05
18509;BME280;9383;50.928;12.116;2022-07-01T01:57:27;98319.38;;;20.20;98.20
18509;BME280;9383;50.928;12.116;2022-07-01T01:59:54;98331.47;;;20.26;98.00
18509;BME280;9383;50.928;12.116;2022-07-01T02:02:20;98335.56;;;20.30;97.67
18509;BME280;9383;50.928;12.116;2022-07-01T02:04:47;98338.88;;;20.34;97.22
18509;BME280;9383;50.928;12.116;2022-07-01T02:07:13;98316.69;;;20.20;97.06
18509;BME280;9383;50.928;12.116;2022-07-01T02:09:40;98350.56;;;20.44;96.51
18509;BME280;9383;50.928;12.116;2022-07-01T02:12:06;98331.41;;;20.37;95.89
18509;BME280;9383;50.928;12.116;2022-07-01T02:14:32;98355.41;;;20.50;94.67
18509;BME280;9383;50.928;12.116;2022-07-01T02:16:58;98313.06;;;20.31;90.56
18509;BME280;9383;50.928;12.116;2022-07-01T02:19:24;98335.72;;;20.50;90.55
18509;BME280;9383;50.928;12.116;2022-07-01T02:21:50;98346.97;;;20.65;88.36
18509;BME280;9383;50.928;12.116;2022-07-01T02:24:18;98374.19;;;20.83;88.63
18509;BME280;9383;50.928;12.116;2022-07-01T02:26:45;98375.22;;;20.92;88.07
18509;BME280;9383;50.928;12.116;2022-07-01T02:29:11;98372.00;;;20.98;87.92
18509;BME280;9383;50.928;12.116;2022-07-01T02:31:37;98361.81;;;21.02;87.25
18509;BME280;9383;50.928;12.116;2022-07-01T02:34:04;98337.94;;;20.87;85.64
18509;BME280;9383;50.928;12.116;2022-07-01T02:36:30;98357.44;;;21.01;83.81
18509;BME280;9383;50.928;12.116;2022-07-01T02:38:56;98366.22;;;21.03;83.12
18509;BME280;9383;50.928;12.116;2022-07-01T02:41:23;98374.22;;;21.14;82.37
18509;BME280;9383;50.928;12.116;2022-07-01T02:43:48;98338.09;;;20.96;81.75
18509;BME280;9383;50.928;12.116;2022-07-01T02:46:14;98370.38;;;21.17;81.28
18509;BME280;9383;50.928;12.116;2022-07-01T02:48:40;98372.25;;;21.16;81.25
18509;BME280;9383;50.928;12.116;2022-07-01T02:51:08;98349.34;;;21.01;79.69
18509;BME280;9383;50.928;12.116;2022-07-01T02:53:34;98375.66;;;21.18;79.96
18509;BME280;9383;50.928;12.116;2022-07-01T02:56:00;98374.66;;;21.19;79.50
18509;BME280;9383;50.928;12.116;2022-07-01T02:58:26;98370.81;;;21.12;78.80
18509;BME280;9383;50.928;12.116;2022-07-01T03:00:52;98387.16;;;21.20;79.04
18509;BME280;9383;50.928;12.116;2022-07-01T03:03:19;98389.00;;;21.20;79.00
18509;BME280;9383;50.928;12.116;2022-07-01T03:05:46;98377.19;;;21.11;79.08
18509;BME280;9383;50.928;12.116;2022-07-01T03:08:13;98377.28;;;21.00;78.99
18509;BME280;9383;50.928;12.116;2022-07-01T03:10:39;98358.03;;;20.83;79.03
18509;BME280;9383;50.928;12.116;2022-07-01T03:13:05;98374.91;;;20.85;79.63
18509;BME280;9383;50.928;12.116;2022-07-01T03:15:32;98418.13;;;21.05;79.54
18509;BME280;9383;50.928;12.116;2022-07-01T03:17:58;98427.22;;;21.04;79.87
18509;BME280;9383;50.928;12.116;2022-07-01T03:20:24;98390.41;;;20.72;80.06
18509;BME280;9383;50.928;12.116;2022-07-01T03:22:50;98423.28;;;20.87;80.35
18509;BME280;9383;50.928;12.116;2022-07-01T03:25:16;98439.25;;;21.00;80.27
18509;BME280;9383;50.928;12.116;2022-07-01T03:27:43;98448.31;;;20.99;80.50
18509;BME280;9383;50.928;12.116;2022-07-01T03:30:14;98432.69;;;20.92;80.56
18509;BME280;9383;50.928;12.116;2022-07-01T03:32:41;98445.75;;;20.97;80.79
18509;BME280;9383;50.928;12.116;2022-07-01T03:35:08;98432.09;;;20.89;80.89
18509;BME280;9383;50.928;12.116;2022-07-01T03:37:54;98442.75;;;20.90;80.74
18509;BME280;9383;50.928;12.116;2022-07-01T03:40:20;98459.63;;;20.92;81.03
18509;BME280;9383;50.928;12.116;2022-07-01T03:42:46;98462.44;;;20.91;80.89
18509;BME280;9383;50.928;12.116;2022-07-01T03:45:12;98471.50;;;20.90;80.71
18509;BME280;9383;50.928;12.116;2022-07-01T03:47:44;98432.25;;;20.55;81.00
18509;BME280;9383;50.928;12.116;2022-07-01T03:50:11;98448.34;;;20.66;81.10
18509;BME280;9383;50.928;12.116;2022-07-01T03:52:37;98475.09;;;20.79;81.17
18509;BME280;9383;50.928;12.116;2022-07-01T03:55:03;98450.56;;;20.61;81.17
18509;BME280;9383;50.928;12.116;2022-07-01T03:57:29;98444.75;;;20.56;80.94
18509;BME280;9383;50.928;12.116;2022-07-01T03:59:55;98483.13;;;20.69;81.05
18509;BME280;9383;50.928;12.116;2022-07-01T04:02:21;98477.78;;;20.58;81.13
18509;BME280;9383;50.928;12.116;2022-07-01T04:04:47;98499.78;;;20.63;81.25
18509;BME280;9383;50.928;12.116;2022-07-01T04:07:13;98518.03;;;20.59;81.70
18509;BME280;9383;50.928;12.116;2022-07-01T04:09:39;98524.91;;;20.52;81.49
18509;BME280;9383;50.928;12.116;2022-07-01T04:12:06;98549.63;;;20.46;82.22
18509;BME280;9383;50.928;12.116;2022-07-01T04:14:34;98573.38;;;20.52;82.63
18509;BME280;9383;50.928;12.116;2022-07-01T04:17:00;98573.16;;;20.44;82.47
18509;BME280;9383;50.928;12.116;2022-07-01T04:19:27;98579.78;;;20.40;82.45
18509;BME280;9383;50.928;12.116;2022-07-01T04:21:53;98592.00;;;20.44;82.64
18509;BME280;9383;50.928;12.116;2022-07-01T04:24:37;98547.03;;;20.12;82.59
18509;BME280;9383;50.928;12.116;2022-07-01T04:27:04;98606.81;;;20.38;82.63
18509;BME280;9383;50.928;12.116;2022-07-01T04:29:30;98585.91;;;20.19;83.03
18509;BME280;9383;50.928;12.116;2022-07-01T04:31:57;98623.69;;;20.29;83.08
18509;BME280;9383;50.928;12.116;2022-07-01T04:34:25;98639.75;;;20.30;83.03
18509;BME280;9383;50.928;12.116;2022-07-01T04:36:51;98656.00;;;20.29;83.20
18509;BME280;9383;50.928;12.116;2022-07-01T04:39:18;98654.44;;;20.26;83.25
18509;BME280;9383;50.928;12.116;2022-07-01T04:41:44;98650.25;;;20.22;83.08
18509;BME280;9383;50.928;12.116;2022-07-01T04:44:30;98634.59;;;20.16;82.90
18509;BME280;9383;50.928;12.116;2022-07-01T04:46:57;98633.63;;;20.17;83.05
18509;BME280;9383;50.928;12.116;2022-07-01T04:49:24;98598.13;;;19.89;82.97
18509;BME280;9383;50.928;12.116;2022-07-01T04:51:50;98653.19;;;20.07;82.94
18509;BME280;9383;50.928;12.116;2022-07-01T04:54:16;98645.72;;;20.00;82.78
18509;BME280;9383;50.928;12.116;2022-07-01T04:56:43;98651.72;;;20.03;83.03
18509;BME280;9383;50.928;12.116;2022-07-01T04:59:10;98615.50;;;19.85;83.08
18509;BME280;9383;50.928;12.116;2022-07-01T05:01:36;98624.09;;;20.01;82.91
18509;BME280;9383;50.928;12.116;2022-07-01T05:04:02;98597.16;;;19.90;83.34
18509;BME280;9383;50.928;12.116;2022-07-01T05:06:28;98567.44;;;19.68;82.86
18509;BME280;9383;50.928;12.116;2022-07-01T05:08:55;98602.53;;;19.78;83.00
18509;BME280;9383;50.928;12.116;2022-07-01T05:11:21;98599.72;;;19.68;83.15
18509;BME280;9383;50.928;12.116;2022-07-01T05:13:47;98605.72;;;19.72;83.53
18509;BME280;9383;50.928;12.116;2022-07-01T05:16:13;98615.59;;;19.72;83.48
18509;BME280;9383;50.928;12.116;2022-07-01T05:18:39;98598.78;;;19.45;83.56
18509;BME280;9383;50.928;12.116;2022-07-01T05:21:24;98634.25;;;19.50;84.33
18509;BME280;9383;50.928;12.116;2022-07-01T05:24:09;98630.69;;;19.50;84.54
18509;BME280;9383;50.928;12.116;2022-07-01T05:26:35;98640.47;;;19.51;84.50
18509;BME280;9383;50.928;12.116;2022-07-01T05:29:01;98641.34;;;19.51;84.30
18509;BME280;9383;50.928;12.116;2022-07-01T05:31:27;98621.75;;;19.38;84.28
18509;BME280;9383;50.928;12.116;2022-07-01T05:33:54;98627.38;;;19.46;84.16
18509;BME280;9383;50.928;12.116;2022-07-01T05:36:20;98596.06;;;19.22;84.08
18509;BME280;9383;50.928;12.116;2022-07-01T05:38:46;98664.06;;;19.59;83.95
18509;BME280;9383;50.928;12.116;2022-07-01T05:41:13;98656.00;;;19.59;83.65
18509;BME280;9383;50.928;12.116;2022-07-01T05:43:39;98639.75;;;19.49;83.61
18509;BME280;9383;50.928;12.116;2022-07-01T05:46:05;98661.53;;;19.57;83.49
18509;BME280;9383;50.928;12.116;2022-07-01T05:48:31;98668.34;;;19.50;83.44
18509;BME280;9383;50.928;12.116;2022-07-01T05:50:57;98627.09;;;19.26;83.42
18509;BME280;9383;50.928;12.116;2022-07-01T05:53:23;98671.41;;;19.57;83.42
18509;BME280;9383;50.928;12.116;2022-07-01T05:55:49;98677.91;;;19.54;83.11
18509;BME280;9383;50.928;12.116;2022-07-01T05:58:16;98638.09;;;19.23;83.33
18509;BME280;9383;50.928;12.116;2022-07-01T06:00:42;98701.88;;;19.57;83.31
18509;BME280;9383;50.928;12.116;2022-07-01T06:03:13;98694.78;;;19.56;83.22
18509;BME280;9383;50.928;12.116;2022-07-01T06:05:41;98686.69;;;19.56;83.29
18509;BME280;9383;50.928;12.116;2022-07-01T06:08:08;98683.50;;;19.51;83.15
18509;BME280;9383;50.928;12.116;2022-07-01T06:10:35;98688.03;;;19.50;83.23
18509;BME280;9383;50.928;12.116;2022-07-01T06:13:02;98689.84;;;19.50;83.30
18509;BME280;9383;50.928;12.116;2022-07-01T06:15:32;98692.31;;;19.53;83.19
18509;BME280;9383;50.928;12.116;2022-07-01T06:17:58;98692.78;;;19.47;83.06
18509;BME280;9383;50.928;12.116;2022-07-01T06:20:24;98706.59;;;19.53;83.29
18509;BME280;9383;50.928;12.116;2022-07-01T06:22:51;98668.84;;;19.19;83.61
18509;BME280;9383;50.928;12.116;2022-07-01T06:25:17;98721.47;;;19.46;84.00
18509;BME280;9383;50.928;12.116;2022-07-01T06:27:45;98703.38;;;19.37;83.95
18509;BME280;9383;50.928;12.116;2022-07-01T06:30:12;98675.53;;;19.14;84.09
18509;BME280;9383;50.928;12.116;2022-07-01T06:32:39;98732.47;;;19.43;84.31
18509;BME280;9383;50.928;12.116;2022-07-01T06:35:06;98721.56;;;19.33;84.34
18509;BME280;9383;50.928;12.116;2022-07-01T06:37:33;98737.97;;;19.42;84.23
18509;BME280;9383;50.928;12.116;2022-07-01T06:40:06;98718.00;;;19.33;84.01
18509;BME280;9383;50.928;12.116;2022-07-01T06:42:33;98721.78;;;19.30;83.85
18509;BME280;9383;50.928;12.116;2022-07-01T06:45:00;98756.03;;;19.39;83.37
18509;BME280;9383;50.928;12.116;2022-07-01T06:47:26;98738.03;;;19.29;83.17
18509;BME280;9383;50.928;12.116;2022-07-01T06:49:52;98765.41;;;19.34;83.19
18509;BME280;9383;50.928;12.116;2022-07-01T06:52:18;98732.31;;;19.09;82.93
18509;BME280;9383;50.928;12.116;2022-07-01T06:54:44;98767.59;;;19.29;82.94
18509;BME280;9383;50.928;12.116;2022-07-01T06:57:10;98737.69;;;19.09;83.00
18509;BME280;9383;50.928;12.116;2022-07-01T06:59:37;98765.97;;;19.26;83.09
18509;BME280;9383;50.928;12.116;2022-07-01T07:02:03;98739.31;;;18.98;83.24
18509;BME280;9383;50.928;12.116;2022-07-01T07:04:31;98721.50;;;18.84;83.17
18509;BME280;9383;50.928;12.116;2022-07-01T07:06:57;98763.13;;;19.16;83.40
18509;BME280;9383;50.928;12.116;2022-07-01T07:09:24;98772.25;;;19.14;83.49
18509;BME280;9383;50.928;12.116;2022-07-01T07:11:50;98774.53;;;19.07;83.52
18509;BME280;9383;50.928;12.116;2022-07-01T07:14:16;98779.41;;;19.02;83.47
18509;BME280;9383;50.928;12.116;2022-07-01T07:16:42;98781.41;;;18.98;83.60
18509;BME280;9383;50.928;12.116;2022-07-01T07:19:08;98770.56;;;18.87;83.66
18509;BME280;9383;50.928;12.116;2022-07-01T07:21:43;98787.97;;;18.94;83.85
18509;BME280;9383;50.928;12.116;2022-07-01T07:24:09;98754.94;;;18.67;84.00
18509;BME280;9383;50.928;12.116;2022-07-01T07:26:35;98767.19;;;18.72;84.01
18509;BME280;9383;50.928;12.116;2022-07-01T07:29:01;98772.56;;;18.72;83.82
18509;BME280;9383;50.928;12.116;2022-07-01T07:31:27;98775.66;;;18.78;83.93
18509;BME280;9383;50.928;12.116;2022-07-01T07:33:54;98792.94;;;18.87;84.11
18509;BME280;9383;50.928;12.116;2022-07-01T07:36:20;98796.69;;;18.84;84.34
18509;BME280;9383;50.928;12.116;2022-07-01T07:38:46;98761.41;;;18.65;84.30
18509;BME280;9383;50.928;12.116;2022-07-01T07:41:12;98755.25;;;18.63;84.58
18509;BME280;9383;50.928;12.116;2022-07-01T07:43:38;98788.53;;;18.86;84.68
18509;BME280;9383;50.928;12.116;2022-07-01T07:46:04;98794.88;;;18.85;84.44
18509;BME280;9383;50.928;12.116;2022-07-01T07:48:31;98768.69;;;18.63;84.50
18509;BME280;9383;50.928;12.116;2022-07-01T07:50:57;98806.91;;;18.79;84.86
18509;BME280;9383;50.928;12.116;2022-07-01T07:53:23;98745.94;;;18.55;84.66
18509;BME280;9383;50.928;12.116;2022-07-01T07:55:49;98774.69;;;18.79;84.28
18509;BME280;9383;50.928;12.116;2022-07-01T07:58:15;98782.22;;;18.74;83.48
18509;BME280;9383;50.928;12.116;2022-07-01T08:00:41;98786.09;;;18.57;83.37
18509;BME280;9383;50.928;12.116;2022-07-01T08:03:07;98786.75;;;18.48;83.40
18509;BME280;9383;50.928;12.116;2022-07-01T08:05:33;98789.63;;;18.45;83.24
18509;BME280;9383;50.928;12.116;2022-07-01T08:07:59;98820.66;;;18.62;83.28
18509;BME280;9383;50.928;12.116;2022-07-01T08:10:25;98784.94;;;18.35;82.83
18509;BME280;9383;50.928;12.116;2022-07-01T08:12:51;98777.84;;;18.34;82.69
18509;BME280;9383;50.928;12.116;2022-07-01T08:15:18;98817.13;;;18.61;82.60
18509;BME280;9383;50.928;12.116;2022-07-01T08:17:44;98811.44;;;18.53;82.49
18509;BME280;9383;50.928;12.116;2022-07-01T08:20:10;98806.50;;;18.34;82.22
18509;BME280;9383;50.928;12.116;2022-07-01T08:22:36;98832.06;;;18.39;81.88
18509;BME280;9383;50.928;12.116;2022-07-01T08:25:03;98845.06;;;18.46;81.94
18509;BME280;9383;50.928;12.116;2022-07-01T08:27:29;98833.34;;;18.34;81.67
18509;BME280;9383;50.928;12.116;2022-07-01T08:29:55;98844.72;;;18.37;81.75
18509;BME280;9383;50.928;12.116;2022-07-01T08:32:21;98832.06;;;18.39;81.68
18509;BME280;9383;50.928;12.116;2022-07-01T08:34:50;98836.03;;;18.21;81.04
18509;BME280;9383;50.928;12.116;2022-07-01T08:37:16;98845.69;;;17.96;82.27
18509;BME280;9383;50.928;12.116;2022-07-01T08:39:42;98841.09;;;17.70;83.37
18509;BME280;9383;50.928;12.116;2022-07-01T08:42:08;98828.47;;;17.45;84.70
18509;BME280;9383;50.928;12.116;2022-07-01T08:44:35;98845.63;;;17.28;86.55
18509;BME280;9383;50.928;12.116;2022-07-01T08:47:02;98877.50;;;17.18;87.29
18509;BME280;9383;50.928;12.116;2022-07-01T08:49:29;98898.47;;;17.26;87.57
18509;BME280;9383;50.928;12.116;2022-07-01T08:51:56;98891.00;;;17.17;88.03
18509;BME280;9383;50.928;12.116;2022-07-01T08:54:22;98883.63;;;17.06;88.10
18509;BME280;9383;50.928;12.116;2022-07-01T08:56:49;98896.09;;;17.07;88.21
18509;BME280;9383;50.928;12.116;2022-07-01T08:59:26;98931.47;;;17.26;87.78
18509;BME280;9383;50.928;12.116;2022-07-01T09:02:01;98905.25;;;17.02;87.44
18509;BME280;9383;50.928;12.116;2022-07-01T09:04:29;98919.88;;;17.11;87.71
18509;BME280;9383;50.928;12.116;2022-07-01T09:07:08;98925.63;;;17.05;88.42
18509;BME280;9383;50.928;12.116;2022-07-01T09:09:39;98912.69;;;16.97;88.80
18509;BME280;9383;50.928;12.116;2022-07-01T09:12:07;98894.13;;;16.94;88.59
18509;BME280;9383;50.928;12.116;2022-07-01T09:14:34;98898.34;;;16.84;89.31
18509;BME280;9383;50.928;12.116;2022-07-01T09:17:04;98878.72;;;16.69;89.98
18509;BME280;9383;50.928;12.116;2022-07-01T09:19:37;98857.50;;;16.51;90.58
18509;BME280;9383;50.928;12.116;2022-07-01T09:22:04;98867.59;;;16.46;91.46
18509;BME280;9383;50.928;12.116;2022-07-01T09:24:37;98879.75;;;16.52;92.24
18509;BME280;9383;50.928;12.116;2022-07-01T09:27:11;98885.09;;;16.52;93.08
18509;BME280;9383;50.928;12.116;2022-07-01T09:29:50;98886.81;;;16.53;93.73
18509;BME280;9383;50.928;12.116;2022-07-01T09:32:23;98846.84;;;16.35;93.71
18509;BME280;9383;50.928;12.116;2022-07-01T09:34:53;98889.22;;;16.57;94.00
18509;BME280;9383;50.928;12.116;2022-07-01T09:37:23;98892.66;;;16.59;94.86
18509;BME280;9383;50.928;12.116;2022-07-01T09:39:55;98883.47;;;16.49;95.16
18509;BME280;9383;50.928;12.116;2022-07-01T09:42:25;98897.53;;;16.53;95.64
18509;BME280;9383;50.928;12.116;2022-07-01T09:45:05;98903.97;;;16.65;95.64
18509;BME280;9383;50.928;12.116;2022-07-01T09:47:40;98892.97;;;16.69;95.90
18509;BME280;9383;50.928;12.116;2022-07-01T09:50:08;98871.63;;;16.53;96.20
18509;BME280;9383;50.928;12.116;2022-07-01T09:52:35;98917.72;;;16.73;96.44
18509;BME280;9383;50.928;12.116;2022-07-01T09:55:05;98913.50;;;16.69;96.68
18509;BME280;9383;50.928;12.116;2022-07-01T09:57:32;98900.78;;;16.58;96.69
18509;BME280;9383;50.928;12.116;2022-07-01T09:59:58;98916.88;;;16.72;96.28
18509;BME280;9383;50.928;12.116;2022-07-01T10:02:27;98926.63;;;16.73;96.21
18509;BME280;9383;50.928;12.116;2022-07-01T10:05:05;98903.75;;;16.53;95.81
18509;BME280;9383;50.928;12.116;2022-07-01T10:08:00;98950.03;;;16.70;96.30
18509;BME280;9383;50.928;12.116;2022-07-01T10:10:51;98953.59;;;16.70;97.09
18509;BME280;9383;50.928;12.116;2022-07-01T10:13:27;98954.34;;;16.72;97.27
18509;BME280;9383;50.928;12.116;2022-07-01T10:15:55;98950.44;;;16.78;97.66
18509;BME280;9383;50.928;12.116;2022-07-01T10:18:26;98939.13;;;16.73;97.52
18509;BME280;9383;50.928;12.116;2022-07-01T10:20:54;98956.16;;;16.86;97.91
18509;BME280;9383;50.928;12.116;2022-07-01T10:23:40;98931.59;;;16.80;98.19
18509;BME280;9383;50.928;12.116;2022-07-01T10:26:08;98955.16;;;17.04;98.73
18509;BME280;9383;50.928;12.116;2022-07-01T10:28:40;98952.88;;;17.12;98.80
18509;BME280;9383;50.928;12.116;2022-07-01T10:31:18;98927.63;;;17.01;98.56
18509;BME280;9383;50.928;12.116;2022-07-01T10:33:54;98953.44;;;17.17;97.39
18509;BME280;9383;50.928;12.116;2022-07-01T10:36:32;98924.25;;;16.98;96.32
18509;BME280;9383;50.928;12.116;2022-07-01T10:41:30;98948.28;;;17.28;96.42
18509;BME280;9383;50.928;12.116;2022-07-01T10:43:58;98850.16;;;16.69;96.20
18509;BME280;9383;50.928;12.116;2022-07-01T10:46:42;98948.75;;;17.35;95.87
18509;BME280;9383;50.928;12.116;2022-07-01T10:49:18;98959.19;;;17.40;96.15
18509;BME280;9383;50.928;12.116;2022-07-01T10:51:54;98864.66;;;16.80;95.80
18509;BME280;9383;50.928;12.116;2022-07-01T10:54:52;98974.91;;;17.46;95.50
18509;BME280;9383;50.928;12.116;2022-07-01T10:57:20;98973.75;;;17.50;95.37
18509;BME280;9383;50.928;12.116;2022-07-01T11:02:37;98951.34;;;17.37;94.95
18509;BME280;9383;50.928;12.116;2022-07-01T11:05:12;98984.06;;;17.56;94.58
18509;BME280;9383;50.928;12.116;2022-07-01T11:07:44;98990.22;;;17.58;94.50
18509;BME280;9383;50.928;12.116;2022-07-01T11:10:16;98986.66;;;17.58;94.36
18509;BME280;9383;50.928;12.116;2022-07-01T11:12:43;98966.94;;;17.44;94.19
18509;BME280;9383;50.928;12.116;2022-07-01T11:15:11;98977.84;;;17.56;93.95
18509;BME280;9383;50.928;12.116;2022-07-01T11:17:43;98959.00;;;17.43;93.78
18509;BME280;9383;50.928;12.116;2022-07-01T11:20:10;98995.16;;;17.65;94.01
18509;BME280;9383;50.928;12.116;2022-07-01T11:22:37;98999.97;;;17.60;93.99
18509;BME280;9383;50.928;12.116;2022-07-01T11:25:07;98989.53;;;17.55;94.46
18509;BME280;9383;50.928;12.116;2022-07-01T11:27:34;98989.81;;;17.50;93.82
18509;BME280;9383;50.928;12.116;2022-07-01T11:30:08;98989.81;;;17.50;93.55
18509;BME280;9383;50.928;12.116;2022-07-01T11:32:46;98970.03;;;17.38;92.91
18509;BME280;9383;50.928;12.116;2022-07-01T11:35:19;98968.75;;;17.44;93.21
18509;BME280;9383;50.928;12.116;2022-07-01T11:38:13;98966.94;;;17.44;93.40
18509;BME280;9383;50.928;12.116;2022-07-01T11:41:01;98985.13;;;17.54;93.52
18509;BME280;9383;50.928;12.116;2022-07-01T11:43:32;98979.78;;;17.54;93.42
18509;BME280;9383;50.928;12.116;2022-07-01T11:46:04;98993.84;;;17.57;92.74
18509;BME280;9383;50.928;12.116;2022-07-01T11:51:18;98974.91;;;17.46;92.09
18509;BME280;9383;50.928;12.116;2022-07-01T11:53:48;98991.81;;;17.61;91.16
18509;BME280;9383;50.928;12.116;2022-07-01T11:56:29;98971.63;;;17.55;90.70
18509;BME280;9383;50.928;12.116;2022-07-01T11:58:56;98975.47;;;17.51;90.54
18509;BME280;9383;50.928;12.116;2022-07-01T12:01:34;98981.38;;;17.56;90.56
18509;BME280;9383;50.928;12.116;2022-07-01T12:04:05;98953.94;;;17.38;89.80
18509;BME280;9383;50.928;12.116;2022-07-01T12:06:33;98932.50;;;17.24;90.11
18509;BME280;9383;50.928;12.116;2022-07-01T12:09:02;98983.41;;;17.53;90.18
18509;BME280;9383;50.928;12.116;2022-07-01T12:11:29;98981.03;;;17.48;90.57
18509;BME280;9383;50.928;12.116;2022-07-01T12:13:56;98944.00;;;17.26;90.85
18509;BME280;9383;50.928;12.116;2022-07-01T12:16:23;98987.22;;;17.49;90.95
18509;BME280;9383;50.928;12.116;2022-07-01T12:19:01;98985.50;;;17.48;91.36
18509;BME280;9383;50.928;12.116;2022-07-01T12:21:30;98987.22;;;17.49;91.39
18509;BME280;9383;50.928;12.116;2022-07-01T12:24:13;98938.34;;;17.16;90.84
18509;BME280;9383;50.928;12.116;2022-07-01T12:26:52;99005.03;;;17.50;89.84
18509;BME280;9383;50.928;12.116;2022-07-01T12:29:23;99005.91;;;17.50;89.46
18509;BME280;9383;50.928;12.116;2022-07-01T12:31:58;99003.41;;;17.47;89.21
18509;BME280;9383;50.928;12.116;2022-07-01T12:37:21;99001.78;;;17.44;88.37
18509;BME280;9383;50.928;12.116;2022-07-01T12:39:52;98997.88;;;17.36;88.40
18509;BME280;9383;50.928;12.116;2022-07-01T12:42:30;99012.78;;;17.40;88.35
18509;BME280;9383;50.928;12.116;2022-07-01T12:45:00;99005.16;;;17.34;88.31
18509;BME280;9383;50.928;12.116;2022-07-01T12:47:56;99021.88;;;17.37;88.34
18509;BME280;9383;50.928;12.116;2022-07-01T12:50:30;99022.94;;;17.35;88.21
18509;BME280;9383;50.928;12.116;2022-07-01T12:53:07;99035.38;;;17.36;88.19
18509;BME280;9383;50.928;12.116;2022-07-01T12:58:08;99030.38;;;17.29;87.91
18509;BME280;9383;50.928;12.116;2022-07-01T13:00:35;99019.88;;;17.26;88.04
18509;BME280;9383;50.928;12.116;2022-07-01T13:03:04;99035.47;;;17.34;88.41
18509;BME280;9383;50.928;12.116;2022-07-01T13:05:33;99029.91;;;17.37;88.88
18509;BME280;9383;50.928;12.116;2022-07-01T13:08:01;99038.16;;;17.34;89.01
18509;BME280;9383;50.928;12.116;2022-07-01T13:10:28;99049.16;;;17.44;88.89
18509;BME280;9383;50.928;12.116;2022-07-01T13:12:54;99051.06;;;17.42;89.16
18509;BME280;9383;50.928;12.116;2022-07-01T13:15:20;99058.53;;;17.51;89.22
18509;BME280;9383;50.928;12.116;2022-07-01T13:17:47;99007.63;;;17.22;89.26
18509;BME280;9383;50.928;12.116;2022-07-01T13:20:15;99056.75;;;17.52;89.36